sensor_id;sensor_type;location;lat;lon;timestamp;temperature;humidity
61016;DHT22;46902;52.920;6.536;2022-07-23T00:00:16;15.00;99.90
61016;DHT22;46902;52.920;6.536;2022-07-23T00:02:42;15.00;99.90
61016;DHT22;46902;52.920;6.536;2022-07-23T00:05:08;14.90;99.90
61016;DHT22;46902;52.920;6.536;2022-07-23T00:07:34;14.90;99.90
61016;DHT22;46902;52.920;6.536;2022-07-23T00:10:00;14.90;99.90
61016;DHT22;46902;52.920;6.536;2022-07-23T00:12:25;14.90;99.90
61016;DHT22;46902;52.920;6.536;2022-07-23T00:14:51;14.90;99.90
61016;DHT22;46902;52.920;6.536;2022-07-23T00:17:17;14.80;99.90
61016;DHT22;46902;52.920;6.536;2022-07-23T00:19:43;14.80;99.90
61016;DHT22;46902;52.920;6.536;2022-07-23T00:22:08;14.80;99.90
61016;DHT22;46902;52.920;6.536;2022-07-23T00:24:34;14.80;99.90
61016;DHT22;46902;52.920;6.536;2022-07-23T00:26:59;14.80;99.90
61016;DHT22;46902;52.920;6.536;2022-07-23T00:29:25;14.70;99.90
61016;DHT22;46902;52.920;6.536;2022-07-23T00:31:50;14.70;99.90
61016;DHT22;46902;52.920;6.536;2022-07-23T00:34:16;14.70;99.90
61016;DHT22;46902;52.920;6.536;2022-07-23T00:36:41;14.60;99.90
61016;DHT22;46902;52.920;6.536;2022-07-23T00:39:07;14.50;99.90
61016;DHT22;46902;52.920;6.536;2022-07-23T00:41:33;14.50;99.90
61016;DHT22;46902;52.920;6.536;2022-07-23T00:44:19;14.50;99.90
61016;DHT22;46902;52.920;6.536;2022-07-23T00:46:51;14.50;99.90
61016;DHT22;46902;52.920;6.536;2022-07-23T00:49:20;14.40;99.90
61016;DHT22;46902;52.920;6.536;2022-07-23T00:51:46;14.30;99.90
61016;DHT22;46902;52.920;6.536;2022-07-23T00:54:13;14.30;99.90
61016;DHT22;46902;52.920;6.536;2022-07-23T00:56:39;14.30;99.90
61016;DHT22;46902;52.920;6.536;2022-07-23T00:59:06;14.30;99.90
61016;DHT22;46902;52.920;6.536;2022-07-23T01:01:32;14.20;99.90
61016;DHT22;46902;52.920;6.536;2022-07-23T01:03:58;14.20;99.90
61016;DHT22;46902;52.920;6.536;2022-07-23T01:06:24;14.20;99.90
61016;DHT22;46902;52.920;6.536;2022-07-23T01:08:49;14.20;99.90
61016;DHT22;46902;52.920;6.536;2022-07-23T01:11:16;14.10;99.90
61016;DHT22;46902;52.920;6.536;2022-07-23T01:13:43;14.10;99.90
61016;DHT22;46902;52.920;6.536;2022-07-23T01:16:09;14.10;99.90
61016;DHT22;46902;52.920;6.536;2022-07-23T01:18:34;14.00;99.90
61016;DHT22;46902;52.920;6.536;2022-07-23T01:21:00;14.00;99.90
61016;DHT22;46902;52.920;6.536;2022-07-23T01:23:25;14.00;99.90
61016;DHT22;46902;52.920;6.536;2022-07-23T01:25:55;14.00;99.90
61016;DHT22;46902;52.920;6.536;2022-07-23T01:28:21;14.00;99.90
61016;DHT22;46902;52.920;6.536;2022-07-23T01:30:47;13.90;99.90
61016;DHT22;46902;52.920;6.536;2022-07-23T01:33:14;14.00;99.90
61016;DHT22;46902;52.920;6.536;2022-07-23T01:35:39;13.90;99.90
61016;DHT22;46902;52.920;6.536;2022-07-23T01:38:05;13.90;99.90
61016;DHT22;46902;52.920;6.536;2022-07-23T01:40:31;13.80;99.90
61016;DHT22;46902;52.920;6.536;2022-07-23T01:42:56;13.80;99.90
61016;DHT22;46902;52.920;6.536;2022-07-23T01:45:22;13.80;99.90
61016;DHT22;46902;52.920;6.536;2022-07-23T01:47:48;13.80;99.90
61016;DHT22;46902;52.920;6.536;2022-07-23T01:50:13;13.70;99.90
61016;DHT22;46902;52.920;6.536;2022-07-23T01:52:39;13.70;99.90
61016;DHT22;46902;52.920;6.536;2022-07-23T01:55:06;13.70;99.90
61016;DHT22;46902;52.920;6.536;2022-07-23T01:57:32;13.70;99.90
61016;DHT22;46902;52.920;6.536;2022-07-23T01:59:57;13.70;99.90
61016;DHT22;46902;52.920;6.536;2022-07-23T02:02:23;13.70;99.90
61016;DHT22;46902;52.920;6.536;2022-07-23T02:04:49;13.70;99.90
61016;DHT22;46902;52.920;6.536;2022-07-23T02:07:14;13.60;99.90
61016;DHT22;46902;52.920;6.536;2022-07-23T02:09:40;13.60;99.90
61016;DHT22;46902;52.920;6.536;2022-07-23T02:12:05;13.60;99.90
61016;DHT22;46902;52.920;6.536;2022-07-23T02:14:31;13.60;99.90
61016;DHT22;46902;52.920;6.536;2022-07-23T02:16:57;13.50;99.90
61016;DHT22;46902;52.920;6.536;2022-07-23T02:19:22;13.50;99.90
61016;DHT22;46902;52.920;6.536;2022-07-23T02:21:48;13.50;99.90
61016;DHT22;46902;52.920;6.536;2022-07-23T02:24:14;13.50;99.90
61016;DHT22;46902;52.920;6.536;2022-07-23T02:26:40;13.40;99.90
61016;DHT22;46902;52.920;6.536;2022-07-23T02:29:06;13.40;99.90
61016;DHT22;46902;52.920;6.536;2022-07-23T02:31:31;13.40;99.90
61016;DHT22;46902;52.920;6.536;2022-07-23T02:33:57;13.30;99.90
61016;DHT22;46902;52.920;6.536;2022-07-23T02:36:23;13.30;99.90
61016;DHT22;46902;52.920;6.536;2022-07-23T02:38:48;13.30;99.90
61016;DHT22;46902;52.920;6.536;2022-07-23T02:41:14;13.20;99.90
61016;DHT22;46902;52.920;6.536;2022-07-23T02:43:39;13.20;99.90
61016;DHT22;46902;52.920;6.536;2022-07-23T02:46:05;13.10;99.90
61016;DHT22;46902;52.920;6.536;2022-07-23T02:48:31;13.10;99.90
61016;DHT22;46902;52.920;6.536;2022-07-23T02:50:56;13.00;99.90
61016;DHT22;46902;52.920;6.536;2022-07-23T02:53:25;13.00;99.90
61016;DHT22;46902;52.920;6.536;2022-07-23T02:55:51;13.00;99.90
61016;DHT22;46902;52.920;6.536;2022-07-23T02:58:16;13.00;99.90
61016;DHT22;46902;52.920;6.536;2022-07-23T03:00:42;13.00;99.90
61016;DHT22;46902;52.920;6.536;2022-07-23T03:03:08;13.00;99.90
61016;DHT22;46902;52.920;6.536;2022-07-23T03:05:34;12.90;99.90
61016;DHT22;46902;52.920;6.536;2022-07-23T03:07:59;12.90;99.90
61016;DHT22;46902;52.920;6.536;2022-07-23T03:10:25;12.90;99.90
61016;DHT22;46902;52.920;6.536;2022-07-23T03:12:51;12.90;99.90
61016;DHT22;46902;52.920;6.536;2022-07-23T03:15:17;12.90;99.90
61016;DHT22;46902;52.920;6.536;2022-07-23T03:17:42;12.90;99.90
61016;DHT22;46902;52.920;6.536;2022-07-23T03:20:09;12.90;99.90
61016;DHT22;46902;52.920;6.536;2022-07-23T03:22:35;12.80;99.90
61016;DHT22;46902;52.920;6.536;2022-07-23T03:25:00;12.90;99.90
61016;DHT22;46902;52.920;6.536;2022-07-23T03:27:29;12.80;99.90
61016;DHT22;46902;52.920;6.536;2022-07-23T03:29:57;12.80;99.90
61016;DHT22;46902;52.920;6.536;2022-07-23T03:32:23;12.80;99.90
61016;DHT22;46902;52.920;6.536;2022-07-23T03:34:49;12.90;99.90
61016;DHT22;46902;52.920;6.536;2022-07-23T03:37:15;12.90;99.90
61016;DHT22;46902;52.920;6.536;2022-07-23T03:39:41;12.80;99.90
61016;DHT22;46902;52.920;6.536;2022-07-23T03:42:07;12.80;99.90
61016;DHT22;46902;52.920;6.536;2022-07-23T03:44:33;12.80;99.90
61016;DHT22;46902;52.920;6.536;2022-07-23T03:46:59;12.80;99.90
61016;DHT22;46902;52.920;6.536;2022-07-23T03:49:25;12.80;99.90
61016;DHT22;46902;52.920;6.536;2022-07-23T03:51:50;12.80;99.90
61016;DHT22;46902;52.920;6.536;2022-07-23T03:54:16;12.80;99.90
61016;DHT22;46902;52.920;6.536;2022-07-23T03:56:42;12.80;99.90
61016;DHT22;46902;52.920;6.536;2022-07-23T03:59:08;12.80;99.90
61016;DHT22;46902;52.920;6.536;2022-07-23T04:01:34;12.70;99.90
61016;DHT22;46902;52.920;6.536;2022-07-23T04:04:00;12.70;99.90
61016;DHT22;46902;52.920;6.536;2022-07-23T04:06:26;12.70;99.90
61016;DHT22;46902;52.920;6.536;2022-07-23T04:08:52;12.70;99.90
61016;DHT22;46902;52.920;6.536;2022-07-23T04:11:17;12.70;99.90
61016;DHT22;46902;52.920;6.536;2022-07-23T04:13:43;12.70;99.90
61016;DHT22;46902;52.920;6.536;2022-07-23T04:16:08;12.70;99.90
61016;DHT22;46902;52.920;6.536;2022-07-23T04:18:34;12.70;99.90
61016;DHT22;46902;52.920;6.536;2022-07-23T04:21:00;12.70;99.90
61016;DHT22;46902;52.920;6.536;2022-07-23T04:23:26;12.70;99.90
61016;DHT22;46902;52.920;6.536;2022-07-23T04:25:51;12.60;99.90
61016;DHT22;46902;52.920;6.536;2022-07-23T04:28:17;12.70;99.90
61016;DHT22;46902;52.920;6.536;2022-07-23T04:30:42;12.60;99.90
61016;DHT22;46902;52.920;6.536;2022-07-23T04:33:08;12.60;99.90
61016;DHT22;46902;52.920;6.536;2022-07-23T04:35:34;12.70;99.90
61016;DHT22;46902;52.920;6.536;2022-07-23T04:37:59;12.70;99.90
61016;DHT22;46902;52.920;6.536;2022-07-23T04:40:26;12.80;99.90
61016;DHT22;46902;52.920;6.536;2022-07-23T04:42:52;12.90;99.90
61016;DHT22;46902;52.920;6.536;2022-07-23T04:45:17;12.90;99.90
61016;DHT22;46902;52.920;6.536;2022-07-23T04:47:43;12.90;99.90
61016;DHT22;46902;52.920;6.536;2022-07-23T04:50:08;12.90;99.90
61016;DHT22;46902;52.920;6.536;2022-07-23T04:52:34;12.90;99.90
61016;DHT22;46902;52.920;6.536;2022-07-23T04:55:00;13.00;99.90
61016;DHT22;46902;52.920;6.536;2022-07-23T04:57:26;13.00;99.90
61016;DHT22;46902;52.920;6.536;2022-07-23T04:59:51;13.10;99.90
61016;DHT22;46902;52.920;6.536;2022-07-23T05:02:17;13.10;99.90
61016;DHT22;46902;52.920;6.536;2022-07-23T05:04:42;13.20;99.90
61016;DHT22;46902;52.920;6.536;2022-07-23T05:07:08;13.20;99.90
61016;DHT22;46902;52.920;6.536;2022-07-23T05:09:34;13.30;99.90
61016;DHT22;46902;52.920;6.536;2022-07-23T05:12:00;13.30;99.90
61016;DHT22;46902;52.920;6.536;2022-07-23T05:14:25;13.40;99.90
61016;DHT22;46902;52.920;6.536;2022-07-23T05:16:51;13.50;99.90
61016;DHT22;46902;52.920;6.536;2022-07-23T05:19:16;13.50;99.90
61016;DHT22;46902;52.920;6.536;2022-07-23T05:21:42;13.60;99.90
61016;DHT22;46902;52.920;6.536;2022-07-23T05:24:08;13.60;99.90
61016;DHT22;46902;52.920;6.536;2022-07-23T05:26:33;13.70;99.90
61016;DHT22;46902;52.920;6.536;2022-07-23T05:28:59;13.70;99.90
61016;DHT22;46902;52.920;6.536;2022-07-23T05:31:24;13.80;99.90
61016;DHT22;46902;52.920;6.536;2022-07-23T05:33:50;13.90;99.90
61016;DHT22;46902;52.920;6.536;2022-07-23T05:36:15;13.90;99.90
61016;DHT22;46902;52.920;6.536;2022-07-23T05:38:41;14.00;99.90
61016;DHT22;46902;52.920;6.536;2022-07-23T05:41:07;14.00;99.90
61016;DHT22;46902;52.920;6.536;2022-07-23T05:43:32;14.10;99.90
61016;DHT22;46902;52.920;6.536;2022-07-23T05:45:58;14.20;99.90
61016;DHT22;46902;52.920;6.536;2022-07-23T05:48:24;14.30;99.90
61016;DHT22;46902;52.920;6.536;2022-07-23T05:50:49;14.40;99.90
61016;DHT22;46902;52.920;6.536;2022-07-23T05:53:15;14.40;99.90
61016;DHT22;46902;52.920;6.536;2022-07-23T05:55:40;14.50;99.90
61016;DHT22;46902;52.920;6.536;2022-07-23T05:58:06;14.60;99.90
61016;DHT22;46902;52.920;6.536;2022-07-23T06:00:31;14.60;99.90
61016;DHT22;46902;52.920;6.536;2022-07-23T06:02:57;14.70;99.90
61016;DHT22;46902;52.920;6.536;2022-07-23T06:05:23;14.80;99.90
61016;DHT22;46902;52.920;6.536;2022-07-23T06:07:49;14.80;99.90
61016;DHT22;46902;52.920;6.536;2022-07-23T06:10:14;14.90;99.90
61016;DHT22;46902;52.920;6.536;2022-07-23T06:12:40;15.00;99.90
61016;DHT22;46902;52.920;6.536;2022-07-23T06:15:06;15.10;99.90
61016;DHT22;46902;52.920;6.536;2022-07-23T06:17:32;15.10;99.90
61016;DHT22;46902;52.920;6.536;2022-07-23T06:19:58;15.20;99.90
61016;DHT22;46902;52.920;6.536;2022-07-23T06:22:24;15.30;99.90
61016;DHT22;46902;52.920;6.536;2022-07-23T06:24:50;15.30;99.90
61016;DHT22;46902;52.920;6.536;2022-07-23T06:27:17;15.40;99.90
61016;DHT22;46902;52.920;6.536;2022-07-23T06:29:42;15.50;99.90
61016;DHT22;46902;52.920;6.536;2022-07-23T06:32:08;15.60;99.90
61016;DHT22;46902;52.920;6.536;2022-07-23T06:34:34;15.60;99.90
61016;DHT22;46902;52.920;6.536;2022-07-23T06:36:59;15.70;99.90
61016;DHT22;46902;52.920;6.536;2022-07-23T06:39:25;15.80;99.90
61016;DHT22;46902;52.920;6.536;2022-07-23T06:41:51;15.80;99.90
61016;DHT22;46902;52.920;6.536;2022-07-23T06:44:17;15.90;99.90
61016;DHT22;46902;52.920;6.536;2022-07-23T06:46:43;16.00;99.90
61016;DHT22;46902;52.920;6.536;2022-07-23T06:49:08;16.10;99.90
61016;DHT22;46902;52.920;6.536;2022-07-23T06:51:34;16.20;99.90
61016;DHT22;46902;52.920;6.536;2022-07-23T06:54:00;16.20;99.90
61016;DHT22;46902;52.920;6.536;2022-07-23T06:56:26;16.30;99.90
61016;DHT22;46902;52.920;6.536;2022-07-23T06:58:51;16.40;99.90
61016;DHT22;46902;52.920;6.536;2022-07-23T07:01:17;16.40;99.90
61016;DHT22;46902;52.920;6.536;2022-07-23T07:03:43;16.50;99.90
61016;DHT22;46902;52.920;6.536;2022-07-23T07:06:08;16.60;99.90
61016;DHT22;46902;52.920;6.536;2022-07-23T07:08:34;16.60;99.90
61016;DHT22;46902;52.920;6.536;2022-07-23T07:11:00;16.70;99.90
61016;DHT22;46902;52.920;6.536;2022-07-23T07:13:26;16.80;99.90
61016;DHT22;46902;52.920;6.536;2022-07-23T07:15:51;16.80;99.90
61016;DHT22;46902;52.920;6.536;2022-07-23T07:18:17;16.90;99.90
61016;DHT22;46902;52.920;6.536;2022-07-23T07:20:42;17.00;99.90
61016;DHT22;46902;52.920;6.536;2022-07-23T07:23:08;17.10;99.90
61016;DHT22;46902;52.920;6.536;2022-07-23T07:25:34;17.10;99.90
61016;DHT22;46902;52.920;6.536;2022-07-23T07:27:59;17.20;99.90
61016;DHT22;46902;52.920;6.536;2022-07-23T07:30:25;17.30;99.90
61016;DHT22;46902;52.920;6.536;2022-07-23T07:32:50;17.50;99.90
61016;DHT22;46902;52.920;6.536;2022-07-23T07:35:16;17.50;99.90
61016;DHT22;46902;52.920;6.536;2022-07-23T07:37:41;17.70;99.90
61016;DHT22;46902;52.920;6.536;2022-07-23T07:40:08;17.80;99.90
61016;DHT22;46902;52.920;6.536;2022-07-23T07:42:33;17.80;99.90
61016;DHT22;46902;52.920;6.536;2022-07-23T07:44:59;17.80;99.90
61016;DHT22;46902;52.920;6.536;2022-07-23T07:47:25;17.80;99.90
61016;DHT22;46902;52.920;6.536;2022-07-23T07:49:50;17.70;99.90
61016;DHT22;46902;52.920;6.536;2022-07-23T07:52:16;17.80;99.90
61016;DHT22;46902;52.920;6.536;2022-07-23T07:54:41;17.90;99.90
61016;DHT22;46902;52.920;6.536;2022-07-23T07:57:08;17.90;99.90
61016;DHT22;46902;52.920;6.536;2022-07-23T07:59:34;17.90;99.90
61016;DHT22;46902;52.920;6.536;2022-07-23T08:01:59;17.90;99.90
61016;DHT22;46902;52.920;6.536;2022-07-23T08:04:25;18.10;99.90
61016;DHT22;46902;52.920;6.536;2022-07-23T08:06:51;18.20;99.90
61016;DHT22;46902;52.920;6.536;2022-07-23T08:09:16;18.30;99.90
61016;DHT22;46902;52.920;6.536;2022-07-23T08:11:42;18.30;99.90
61016;DHT22;46902;52.920;6.536;2022-07-23T08:14:08;18.40;99.90
61016;DHT22;46902;52.920;6.536;2022-07-23T08:16:34;18.40;99.90
61016;DHT22;46902;52.920;6.536;2022-07-23T08:19:00;18.40;99.90
61016;DHT22;46902;52.920;6.536;2022-07-23T08:21:25;18.30;99.90
61016;DHT22;46902;52.920;6.536;2022-07-23T08:23:51;18.20;99.90
61016;DHT22;46902;52.920;6.536;2022-07-23T08:26:17;18.20;99.90
61016;DHT22;46902;52.920;6.536;2022-07-23T08:28:42;18.30;99.90
61016;DHT22;46902;52.920;6.536;2022-07-23T08:31:08;18.50;99.90
61016;DHT22;46902;52.920;6.536;2022-07-23T08:33:33;18.90;99.90
61016;DHT22;46902;52.920;6.536;2022-07-23T08:36:00;19.10;99.90
61016;DHT22;46902;52.920;6.536;2022-07-23T08:38:27;19.10;99.90
61016;DHT22;46902;52.920;6.536;2022-07-23T08:40:55;19.00;99.90
61016;DHT22;46902;52.920;6.536;2022-07-23T08:43:25;18.90;99.90
61016;DHT22;46902;52.920;6.536;2022-07-23T08:45:53;18.90;99.90
61016;DHT22;46902;52.920;6.536;2022-07-23T08:48:24;19.00;99.90
61016;DHT22;46902;52.920;6.536;2022-07-23T08:50:52;19.20;99.90
61016;DHT22;46902;52.920;6.536;2022-07-23T08:53:19;19.40;99.90
61016;DHT22;46902;52.920;6.536;2022-07-23T08:55:46;19.60;99.90
61016;DHT22;46902;52.920;6.536;2022-07-23T08:58:13;19.90;99.90
61016;DHT22;46902;52.920;6.536;2022-07-23T09:00:39;20.10;99.90
61016;DHT22;46902;52.920;6.536;2022-07-23T09:03:05;20.10;99.90
61016;DHT22;46902;52.920;6.536;2022-07-23T09:05:31;20.20;99.90
61016;DHT22;46902;52.920;6.536;2022-07-23T09:08:09;20.30;99.90
61016;DHT22;46902;52.920;6.536;2022-07-23T09:10:58;20.30;99.90
61016;DHT22;46902;52.920;6.536;2022-07-23T09:16:19;20.20;99.90
61016;DHT22;46902;52.920;6.536;2022-07-23T09:19:00;20.40;99.90
61016;DHT22;46902;52.920;6.536;2022-07-23T09:21:34;20.40;99.90
61016;DHT22;46902;52.920;6.536;2022-07-23T09:24:05;20.40;99.90
61016;DHT22;46902;52.920;6.536;2022-07-23T09:26:42;20.30;99.90
61016;DHT22;46902;52.920;6.536;2022-07-23T09:29:15;20.30;99.90
61016;DHT22;46902;52.920;6.536;2022-07-23T09:31:50;20.50;99.90
61016;DHT22;46902;52.920;6.536;2022-07-23T09:34:30;20.80;99.90
61016;DHT22;46902;52.920;6.536;2022-07-23T09:37:09;21.30;99.90
61016;DHT22;46902;52.920;6.536;2022-07-23T09:39:36;21.60;99.20
61016;DHT22;46902;52.920;6.536;2022-07-23T09:42:23;21.70;98.20
61016;DHT22;46902;52.920;6.536;2022-07-23T09:44:51;21.70;95.00
61016;DHT22;46902;52.920;6.536;2022-07-23T09:47:17;21.60;96.60
61016;DHT22;46902;52.920;6.536;2022-07-23T09:50:05;21.60;97.40
61016;DHT22;46902;52.920;6.536;2022-07-23T09:52:35;21.50;97.80
61016;DHT22;46902;52.920;6.536;2022-07-23T09:55:06;21.60;99.90
61016;DHT22;46902;52.920;6.536;2022-07-23T09:57:35;21.70;96.40
61016;DHT22;46902;52.920;6.536;2022-07-23T10:00:04;21.70;96.70
61016;DHT22;46902;52.920;6.536;2022-07-23T10:02:33;21.70;97.50
61016;DHT22;46902;52.920;6.536;2022-07-23T10:04:59;21.80;99.20
61016;DHT22;46902;52.920;6.536;2022-07-23T10:07:26;22.00;96.70
61016;DHT22;46902;52.920;6.536;2022-07-23T10:09:56;22.10;97.00
61016;DHT22;46902;52.920;6.536;2022-07-23T10:12:24;22.20;94.00
61016;DHT22;46902;52.920;6.536;2022-07-23T10:15:06;22.10;94.40
61016;DHT22;46902;52.920;6.536;2022-07-23T10:17:32;22.00;96.20
61016;DHT22;46902;52.920;6.536;2022-07-23T10:19:58;22.10;94.70
61016;DHT22;46902;52.920;6.536;2022-07-23T10:22:36;22.20;94.80
61016;DHT22;46902;52.920;6.536;2022-07-23T10:25:10;22.20;92.80
61016;DHT22;46902;52.920;6.536;2022-07-23T10:31:02;22.10;95.70
61016;DHT22;46902;52.920;6.536;2022-07-23T10:36:42;22.30;97.60
61016;DHT22;46902;52.920;6.536;2022-07-23T10:41:40;22.70;92.40
61016;DHT22;46902;52.920;6.536;2022-07-23T10:44:11;22.80;92.40
61016;DHT22;46902;52.920;6.536;2022-07-23T10:47:01;22.90;93.70
61016;DHT22;46902;52.920;6.536;2022-07-23T10:49:45;22.80;93.20
61016;DHT22;46902;52.920;6.536;2022-07-23T10:57:11;22.50;93.40
61016;DHT22;46902;52.920;6.536;2022-07-23T11:02:31;22.50;94.80
61016;DHT22;46902;52.920;6.536;2022-07-23T11:05:07;22.50;95.90
61016;DHT22;46902;52.920;6.536;2022-07-23T11:07:34;22.50;93.10
61016;DHT22;46902;52.920;6.536;2022-07-23T11:10:00;22.50;95.70
61016;DHT22;46902;52.920;6.536;2022-07-23T11:15:00;22.60;93.60
61016;DHT22;46902;52.920;6.536;2022-07-23T11:17:27;22.80;94.70
61016;DHT22;46902;52.920;6.536;2022-07-23T11:25:08;23.60;92.50
61016;DHT22;46902;52.920;6.536;2022-07-23T11:27:39;23.90;91.60
61016;DHT22;46902;52.920;6.536;2022-07-23T11:30:06;24.10;90.60
61016;DHT22;46902;52.920;6.536;2022-07-23T11:32:35;24.30;90.20
61016;DHT22;46902;52.920;6.536;2022-07-23T11:37:48;24.60;88.10
61016;DHT22;46902;52.920;6.536;2022-07-23T11:40:16;24.30;83.00
61016;DHT22;46902;52.920;6.536;2022-07-23T11:43:02;24.10;84.40
61016;DHT22;46902;52.920;6.536;2022-07-23T11:45:41;23.90;81.00
61016;DHT22;46902;52.920;6.536;2022-07-23T11:48:09;23.70;85.60
61016;DHT22;46902;52.920;6.536;2022-07-23T11:50:35;23.60;90.30
61016;DHT22;46902;52.920;6.536;2022-07-23T11:53:02;23.60;92.70
61016;DHT22;46902;52.920;6.536;2022-07-23T11:55:28;23.50;90.90
61016;DHT22;46902;52.920;6.536;2022-07-23T11:57:54;23.50;90.50
61016;DHT22;46902;52.920;6.536;2022-07-23T12:00:22;23.60;90.10
61016;DHT22;46902;52.920;6.536;2022-07-23T12:02:51;23.70;90.90
61016;DHT22;46902;52.920;6.536;2022-07-23T12:05:26;24.00;90.30
61016;DHT22;46902;52.920;6.536;2022-07-23T12:07:53;24.10;85.50
61016;DHT22;46902;52.920;6.536;2022-07-23T12:10:42;24.10;84.60
61016;DHT22;46902;52.920;6.536;2022-07-23T12:13:18;24.30;85.30
61016;DHT22;46902;52.920;6.536;2022-07-23T12:15:47;24.50;88.50
61016;DHT22;46902;52.920;6.536;2022-07-23T12:18:19;24.80;84.70
61016;DHT22;46902;52.920;6.536;2022-07-23T12:20:48;25.00;80.20
61016;DHT22;46902;52.920;6.536;2022-07-23T12:23:16;24.90;81.30
61016;DHT22;46902;52.920;6.536;2022-07-23T12:25:44;24.80;78.40
61016;DHT22;46902;52.920;6.536;2022-07-23T12:28:13;24.60;78.40
61016;DHT22;46902;52.920;6.536;2022-07-23T12:30:47;24.50;79.50
61016;DHT22;46902;52.920;6.536;2022-07-23T12:33:34;24.70;76.70
61016;DHT22;46902;52.920;6.536;2022-07-23T12:36:08;24.90;80.00
61016;DHT22;46902;52.920;6.536;2022-07-23T12:38:52;24.80;78.30
61016;DHT22;46902;52.920;6.536;2022-07-23T12:41:18;24.60;77.80
61016;DHT22;46902;52.920;6.536;2022-07-23T12:43:45;24.40;78.70
61016;DHT22;46902;52.920;6.536;2022-07-23T12:46:13;24.20;83.00
61016;DHT22;46902;52.920;6.536;2022-07-23T12:51:30;24.00;84.90
61016;DHT22;46902;52.920;6.536;2022-07-23T12:56:36;24.00;89.80
61016;DHT22;46902;52.920;6.536;2022-07-23T12:59:10;23.90;91.20
61016;DHT22;46902;52.920;6.536;2022-07-23T13:01:38;23.90;92.00
61016;DHT22;46902;52.920;6.536;2022-07-23T13:04:12;23.80;92.00
61016;DHT22;46902;52.920;6.536;2022-07-23T13:09:08;23.60;91.80
61016;DHT22;46902;52.920;6.536;2022-07-23T13:11:34;23.60;93.10
61016;DHT22;46902;52.920;6.536;2022-07-23T13:14:00;23.70;93.00
61016;DHT22;46902;52.920;6.536;2022-07-23T13:16:27;23.80;93.20
61016;DHT22;46902;52.920;6.536;2022-07-23T13:18:53;23.80;94.50
61016;DHT22;46902;52.920;6.536;2022-07-23T13:21:18;24.00;92.90
61016;DHT22;46902;52.920;6.536;2022-07-23T13:23:44;24.30;92.20
61016;DHT22;46902;52.920;6.536;2022-07-23T13:26:10;24.70;90.20
61016;DHT22;46902;52.920;6.536;2022-07-23T13:28:35;24.90;90.70
61016;DHT22;46902;52.920;6.536;2022-07-23T13:31:01;25.10;89.20
61016;DHT22;46902;52.920;6.536;2022-07-23T13:33:26;25.40;84.10
61016;DHT22;46902;52.920;6.536;2022-07-23T13:35:53;25.60;76.30
61016;DHT22;46902;52.920;6.536;2022-07-23T13:38:20;25.60;75.80
61016;DHT22;46902;52.920;6.536;2022-07-23T13:40:48;25.70;77.30
61016;DHT22;46902;52.920;6.536;2022-07-23T13:43:17;25.90;73.10
61016;DHT22;46902;52.920;6.536;2022-07-23T13:45:43;26.00;76.90
61016;DHT22;46902;52.920;6.536;2022-07-23T13:48:10;26.10;74.40
61016;DHT22;46902;52.920;6.536;2022-07-23T13:50:36;26.10;70.00
61016;DHT22;46902;52.920;6.536;2022-07-23T13:53:07;26.00;71.50
61016;DHT22;46902;52.920;6.536;2022-07-23T13:55:35;25.60;72.60
61016;DHT22;46902;52.920;6.536;2022-07-23T13:58:00;25.40;74.70
61016;DHT22;46902;52.920;6.536;2022-07-23T14:00:27;25.20;74.50
61016;DHT22;46902;52.920;6.536;2022-07-23T14:02:53;25.00;75.60
61016;DHT22;46902;52.920;6.536;2022-07-23T14:05:19;24.80;76.50
61016;DHT22;46902;52.920;6.536;2022-07-23T14:07:44;24.70;78.70
61016;DHT22;46902;52.920;6.536;2022-07-23T14:10:12;24.60;80.50
61016;DHT22;46902;52.920;6.536;2022-07-23T14:12:38;24.50;84.10
61016;DHT22;46902;52.920;6.536;2022-07-23T14:15:05;24.70;84.40
61016;DHT22;46902;52.920;6.536;2022-07-23T14:17:32;24.90;86.50
61016;DHT22;46902;52.920;6.536;2022-07-23T14:19:58;24.90;84.70
61016;DHT22;46902;52.920;6.536;2022-07-23T14:22:24;24.90;83.00
61016;DHT22;46902;52.920;6.536;2022-07-23T14:24:50;24.90;84.90
61016;DHT22;46902;52.920;6.536;2022-07-23T14:27:16;24.90;85.10
61016;DHT22;46902;52.920;6.536;2022-07-23T14:29:42;24.70;84.00
61016;DHT22;46902;52.920;6.536;2022-07-23T14:32:07;24.60;86.50
61016;DHT22;46902;52.920;6.536;2022-07-23T14:34:34;24.80;91.00
61016;DHT22;46902;52.920;6.536;2022-07-23T14:37:00;24.90;90.90
61016;DHT22;46902;52.920;6.536;2022-07-23T14:39:25;25.20;89.80
61016;DHT22;46902;52.920;6.536;2022-07-23T14:41:51;25.40;84.40
61016;DHT22;46902;52.920;6.536;2022-07-23T14:44:17;25.40;84.40
61016;DHT22;46902;52.920;6.536;2022-07-23T14:46:43;25.30;81.70
61016;DHT22;46902;52.920;6.536;2022-07-23T14:49:08;25.40;83.30
61016;DHT22;46902;52.920;6.536;2022-07-23T14:51:34;25.50;82.70
61016;DHT22;46902;52.920;6.536;2022-07-23T14:54:00;25.40;79.80
61016;DHT22;46902;52.920;6.536;2022-07-23T14:56:26;25.50;79.10
61016;DHT22;46902;52.920;6.536;2022-07-23T14:58:51;25.60;77.50
61016;DHT22;46902;52.920;6.536;2022-07-23T15:01:17;25.70;75.90
61016;DHT22;46902;52.920;6.536;2022-07-23T15:03:42;25.80;77.60
61016;DHT22;46902;52.920;6.536;2022-07-23T15:06:08;26.00;80.40
61016;DHT22;46902;52.920;6.536;2022-07-23T15:08:34;26.10;78.00
61016;DHT22;46902;52.920;6.536;2022-07-23T15:11:00;26.00;72.30
61016;DHT22;46902;52.920;6.536;2022-07-23T15:13:25;25.90;69.70
61016;DHT22;46902;52.920;6.536;2022-07-23T15:15:51;25.90;70.50
61016;DHT22;46902;52.920;6.536;2022-07-23T15:18:17;25.80;72.40
61016;DHT22;46902;52.920;6.536;2022-07-23T15:20:42;25.80;76.70
61016;DHT22;46902;52.920;6.536;2022-07-23T15:23:08;25.80;77.20
61016;DHT22;46902;52.920;6.536;2022-07-23T15:25:34;25.90;78.70
61016;DHT22;46902;52.920;6.536;2022-07-23T15:27:59;25.90;79.10
61016;DHT22;46902;52.920;6.536;2022-07-23T15:30:26;25.80;76.90
61016;DHT22;46902;52.920;6.536;2022-07-23T15:32:52;25.80;79.80
61016;DHT22;46902;52.920;6.536;2022-07-23T15:35:19;25.90;77.70
61016;DHT22;46902;52.920;6.536;2022-07-23T15:37:44;25.90;78.00
61016;DHT22;46902;52.920;6.536;2022-07-23T15:40:11;25.90;78.90
61016;DHT22;46902;52.920;6.536;2022-07-23T15:42:37;25.90;77.10
61016;DHT22;46902;52.920;6.536;2022-07-23T15:45:04;25.90;78.20
61016;DHT22;46902;52.920;6.536;2022-07-23T15:47:30;25.90;78.60
61016;DHT22;46902;52.920;6.536;2022-07-23T15:49:55;25.90;77.50
61016;DHT22;46902;52.920;6.536;2022-07-23T15:52:21;26.00;77.00
61016;DHT22;46902;52.920;6.536;2022-07-23T15:54:47;26.00;78.00
61016;DHT22;46902;52.920;6.536;2022-07-23T15:57:13;26.10;76.80
61016;DHT22;46902;52.920;6.536;2022-07-23T15:59:38;26.10;76.40
61016;DHT22;46902;52.920;6.536;2022-07-23T16:02:04;26.10;74.80
61016;DHT22;46902;52.920;6.536;2022-07-23T16:04:31;26.20;73.90
61016;DHT22;46902;52.920;6.536;2022-07-23T16:06:58;25.90;73.50